Time;durP1;ratioP1;P1;durP2;ratioP2;P2;SDS_P1;SDS_P2;PMS_P1;PMS_P2;Temp;Humidity;BMP_temperature;BMP_pressure;BME280_temperature;BME280_humidity;BME280_pressure;Samples;Min_cycle;Max_cycle;Signal;HPM_P1;HPM_P2
2021/06/14 00:02:23;;;;;;;3.42;1.23;;;;;;;;;;5132214;28;20059;-66
2021/06/14 00:04:49;;;;;;;4.95;1.10;;;;;;;;;;5113857;28;20027;-64
2021/06/14 00:07:16;;;;;;;2.58;1.10;;;;;;;;;;5132184;28;20019;-67
2021/06/14 00:09:43;;;;;;;3.88;1.08;;;;;;;;;;5132107;28;20102;-66
2021/06/14 00:12:09;;;;;;;3.95;1.15;;;;;;;;;;5132227;28;20623;-68
2021/06/14 00:14:36;;;;;;;3.67;1.25;;;;;;;;;;5132347;28;20076;-66
2021/06/14 00:17:03;;;;;;;4.38;1.45;;;;;;;;;;5132530;28;20031;-68
2021/06/14 00:19:29;;;;;;;2.50;1.20;;;;;;;;;;5132205;28;20015;-67
2021/06/14 00:21:55;;;;;;;4.57;1.40;;;;;;;;;;5113838;27;20032;-67
2021/06/14 00:24:21;;;;;;;3.88;1.25;;;;;;;;;;5117664;27;20031;-67
2021/06/14 00:26:47;;;;;;;3.38;1.30;;;;;;;;;;5136184;27;20027;-67
2021/06/14 00:29:13;;;;;;;3.85;0.90;;;;;;;;;;5136009;27;20037;-67
2021/06/14 00:31:39;;;;;;;3.70;1.20;;;;;;;;;;5136055;27;20119;-68
2021/06/14 00:34:05;;;;;;;5.97;1.20;;;;;;;;;;5136112;27;20118;-67
2021/06/14 00:36:31;;;;;;;3.85;1.23;;;;;;;;;;5136008;27;20028;-67
2021/06/14 00:38:57;;;;;;;3.90;1.30;;;;;;;;;;5135833;27;20054;-64
2021/06/14 00:41:24;;;;;;;5.57;1.50;;;;;;;;;;5117601;27;20015;-65
2021/06/14 00:43:50;;;;;;;4.05;1.33;;;;;;;;;;5135769;27;20110;-67
2021/06/14 00:46:16;;;;;;;4.43;1.40;;;;;;;;;;5136034;27;20035;-67
2021/06/14 00:48:42;;;;;;;4.28;1.45;;;;;;;;;;5136007;27;20054;-67
2021/06/14 00:51:09;;;;;;;3.85;1.10;;;;;;;;;;5135551;27;20084;-67
2021/06/14 00:53:36;;;;;;;3.05;1.13;;;;;;;;;;5135435;27;20019;-68
2021/06/14 00:56:03;;;;;;;3.15;1.35;;;;;;;;;;5135586;27;20223;-67
2021/06/14 00:58:29;;;;;;;2.92;1.35;;;;;;;;;;5135578;27;20089;-67
2021/06/14 01:00:56;;;;;;;3.13;1.30;;;;;;;;;;5135326;27;20481;-67
2021/06/14 01:03:22;;;;;;;4.82;1.50;;;;;;;;;;5135316;27;20027;-67
2021/06/14 01:05:50;;;;;;;3.45;1.20;;;;;;;;;;5135512;27;20532;-67
2021/06/14 01:08:16;;;;;;;2.50;1.00;;;;;;;;;;5142633;27;20026;-67
2021/06/14 01:10:43;;;;;;;3.78;1.20;;;;;;;;;;5156307;27;20055;-67
2021/06/14 01:13:12;;;;;;;3.38;1.20;;;;;;;;;;5155923;27;20022;-67
2021/06/14 01:16:05;;;;;;;3.33;1.10;;;;;;;;;;5155986;27;20093;-67
2021/06/14 01:18:51;;;;;;;2.88;1.27;;;;;;;;;;5131723;27;20114;-66
2021/06/14 01:21:41;;;;;;;3.30;1.08;;;;;;;;;;5123966;27;20027;-67
2021/06/14 01:24:25;;;;;;;3.80;1.30;;;;;;;;;;5126292;27;20493;-67
2021/06/14 01:27:04;;;;;;;4.40;1.23;;;;;;;;;;5136460;27;20060;-67
2021/06/14 01:29:31;;;;;;;2.95;1.08;;;;;;;;;;5154591;27;20022;-65
2021/06/14 01:31:58;;;;;;;4.63;1.42;;;;;;;;;;5155372;27;20177;-67
2021/06/14 01:34:27;;;;;;;5.00;1.52;;;;;;;;;;5154745;27;20126;-67
2021/06/14 01:36:54;;;;;;;4.28;1.10;;;;;;;;;;5155658;27;20022;-67
2021/06/14 01:39:21;;;;;;;3.35;1.27;;;;;;;;;;5155520;27;20478;-67
2021/06/14 01:41:47;;;;;;;3.05;1.17;;;;;;;;;;5155349;27;20144;-67
2021/06/14 01:44:14;;;;;;;5.47;1.58;;;;;;;;;;5155460;27;20023;-67
2021/06/14 01:46:41;;;;;;;4.93;1.25;;;;;;;;;;5155309;27;20023;-64
2021/06/14 01:49:07;;;;;;;3.33;1.20;;;;;;;;;;5155223;27;20059;-66
2021/06/14 01:51:34;;;;;;;3.30;1.13;;;;;;;;;;5155090;27;20073;-67
2021/06/14 01:54:07;;;;;;;2.90;1.17;;;;;;;;;;5155327;27;20549;-67
2021/06/14 01:56:33;;;;;;;;;;;;;;;;;;5155810;27;20079;-67
2021/06/14 01:59:00;;;;;;;4.32;1.38;;;;;;;;;;5155310;27;19993;-67
2021/06/14 02:01:27;;;;;;;3.67;1.25;;;;;;;;;;5155257;27;20026;-66
2021/06/14 02:03:54;;;;;;;5.20;1.20;;;;;;;;;;5152503;27;20103;-67
2021/06/14 02:06:20;;;;;;;3.05;1.33;;;;;;;;;;5154550;27;20156;-66
2021/06/14 02:08:46;;;;;;;2.35;0.90;;;;;;;;;;5154676;27;20119;-66
2021/06/14 02:11:13;;;;;;;4.25;1.50;;;;;;;;;;5154703;27;20108;-67
2021/06/14 02:13:39;;;;;;;3.22;1.20;;;;;;;;;;5154832;27;20015;-67
2021/06/14 02:16:05;;;;;;;3.60;1.10;;;;;;;;;;5154631;27;20022;-67
2021/06/14 02:18:31;;;;;;;4.20;1.17;;;;;;;;;;5154835;27;20022;-67
2021/06/14 02:20:57;;;;;;;4.90;1.40;;;;;;;;;;5154727;27;20074;-66
2021/06/14 02:23:23;;;;;;;3.60;1.10;;;;;;;;;;5136129;27;20018;-67
2021/06/14 02:25:49;;;;;;;5.70;1.50;;;;;;;;;;5151283;27;20023;-66
2021/06/14 02:28:15;;;;;;;2.65;1.10;;;;;;;;;;5153762;27;20019;-66
2021/06/14 02:30:42;;;;;;;4.30;1.55;;;;;;;;;;5135717;27;20011;-66
2021/06/14 02:33:08;;;;;;;3.33;1.30;;;;;;;;;;5154225;27;20094;-67
2021/06/14 02:35:34;;;;;;;4.25;1.35;;;;;;;;;;5154537;27;20031;-67
2021/06/14 02:38:06;;;;;;;3.80;1.30;;;;;;;;;;5154451;27;20026;-67
2021/06/14 02:40:32;;;;;;;3.30;1.27;;;;;;;;;;5154394;27;20019;-67
2021/06/14 02:43:04;;;;;;;3.28;1.42;;;;;;;;;;5154090;27;20118;-67
2021/06/14 02:45:30;;;;;;;4.15;1.35;;;;;;;;;;5154171;27;20063;-67
2021/06/14 02:47:57;;;;;;;4.25;1.23;;;;;;;;;;5154094;27;20079;-67
2021/06/14 02:50:23;;;;;;;4.30;1.33;;;;;;;;;;5135509;27;20019;-67
2021/06/14 02:52:51;;;;;;;4.15;1.67;;;;;;;;;;5154087;27;20083;-67
2021/06/14 02:55:19;;;;;;;4.55;1.48;;;;;;;;;;5154576;27;20220;-66
2021/06/14 02:57:51;;;;;;;3.20;1.13;;;;;;;;;;5154113;27;20035;-67
2021/06/14 03:00:18;;;;;;;2.65;1.17;;;;;;;;;;5153948;27;20584;-67
2021/06/14 03:02:44;;;;;;;5.78;1.40;;;;;;;;;;5153894;27;20137;-67
2021/06/14 03:05:11;;;;;;;3.42;1.23;;;;;;;;;;5153904;27;20026;-67
2021/06/14 03:07:38;;;;;;;4.88;1.50;;;;;;;;;;5153856;27;20015;-67
2021/06/14 03:10:08;;;;;;;9.13;1.45;;;;;;;;;;5154011;27;20050;-66
2021/06/14 03:12:34;;;;;;;3.60;1.20;;;;;;;;;;5135617;27;20134;-66
2021/06/14 03:15:03;;;;;;;4.18;1.50;;;;;;;;;;5133150;27;20030;-67
2021/06/14 03:17:29;;;;;;;2.78;1.00;;;;;;;;;;5151942;27;20026;-65
2021/06/14 03:19:56;;;;;;;4.80;1.80;;;;;;;;;;5152008;27;20019;-67
2021/06/14 03:22:22;;;;;;;2.85;1.20;;;;;;;;;;5153635;27;20019;-68
2021/06/14 03:24:48;;;;;;;2.90;1.20;;;;;;;;;;5153305;27;20019;-67
2021/06/14 03:27:15;;;;;;;4.68;1.30;;;;;;;;;;5153552;27;20091;-67
2021/06/14 03:29:43;;;;;;;6.47;1.50;;;;;;;;;;5153437;27;20019;-67
2021/06/14 03:32:09;;;;;;;3.20;1.13;;;;;;;;;;5153100;27;20062;-65
2021/06/14 03:34:36;;;;;;;3.70;1.23;;;;;;;;;;5153249;27;20110;-66
2021/06/14 03:37:03;;;;;;;3.45;1.10;;;;;;;;;;5153269;27;20050;-67
2021/06/14 03:39:29;;;;;;;3.70;1.40;;;;;;;;;;5153067;27;20381;-68
2021/06/14 03:41:55;;;;;;;5.30;1.40;;;;;;;;;;5152390;27;20039;-67
2021/06/14 03:44:22;;;;;;;3.50;1.33;;;;;;;;;;5153305;27;20062;-66
2021/06/14 03:46:48;;;;;;;3.60;1.23;;;;;;;;;;5153297;27;20030;-67
2021/06/14 03:49:14;;;;;;;4.93;1.33;;;;;;;;;;5153165;27;20027;-67
2021/06/14 03:51:40;;;;;;;4.65;1.40;;;;;;;;;;5153140;27;20504;-67
2021/06/14 03:54:07;;;;;;;3.95;1.35;;;;;;;;;;5153038;27;20075;-67
2021/06/14 03:56:34;;;;;;;3.03;1.20;;;;;;;;;;5153496;27;20256;-67
2021/06/14 03:59:00;;;;;;;4.05;1.63;;;;;;;;;;5159792;27;20482;-67
2021/06/14 04:01:27;;;;;;;3.28;1.42;;;;;;;;;;5160190;27;20015;-67
2021/06/14 04:06:31;;;;;;;4.32;1.40;;;;;;;;;;5160507;27;20469;-67
2021/06/14 04:08:57;;;;;;;4.82;1.40;;;;;;;;;;5141422;27;20378;-67
2021/06/14 04:11:24;;;;;;;6.20;1.60;;;;;;;;;;5160045;27;20030;-67
2021/06/14 04:13:51;;;;;;;4.32;1.50;;;;;;;;;;5159965;27;20029;-67
2021/06/14 04:16:17;;;;;;;4.03;1.50;;;;;;;;;;5159850;27;20022;-67
2021/06/14 04:18:43;;;;;;;5.20;1.70;;;;;;;;;;5159675;27;20064;-67
2021/06/14 04:21:09;;;;;;;3.65;1.40;;;;;;;;;;5159425;27;20015;-67
2021/06/14 04:23:36;;;;;;;6.88;1.77;;;;;;;;;;5159730;27;20105;-67
2021/06/14 04:26:02;;;;;;;3.05;1.48;;;;;;;;;;5159771;27;20018;-67
2021/06/14 04:28:28;;;;;;;3.55;1.50;;;;;;;;;;5159751;27;20021;-66
2021/06/14 04:30:54;;;;;;;6.95;1.42;;;;;;;;;;5159748;27;20042;-65
2021/06/14 04:33:20;;;;;;;4.85;1.63;;;;;;;;;;5159676;27;20030;-68
2021/06/14 04:35:46;;;;;;;5.25;1.48;;;;;;;;;;5159726;27;20015;-67
2021/06/14 04:38:13;;;;;;;2.97;1.25;;;;;;;;;;5159728;27;20389;-67
2021/06/14 04:40:39;;;;;;;4.32;1.38;;;;;;;;;;5159605;27;20021;-65
2021/06/14 04:43:05;;;;;;;3.63;1.40;;;;;;;;;;5159560;27;20472;-68
2021/06/14 04:45:31;;;;;;;5.32;1.08;;;;;;;;;;5159733;27;20033;-67
2021/06/14 04:47:57;;;;;;;3.50;1.50;;;;;;;;;;5159473;27;20027;-67
2021/06/14 04:50:23;;;;;;;4.78;1.60;;;;;;;;;;5159888;27;20067;-67
2021/06/14 04:52:49;;;;;;;4.10;1.38;;;;;;;;;;5141125;27;20043;-68
2021/06/14 04:55:16;;;;;;;5.10;1.70;;;;;;;;;;5141040;27;20022;-68
2021/06/14 04:57:42;;;;;;;3.38;1.38;;;;;;;;;;5141057;27;20022;-67
2021/06/14 05:00:08;;;;;;;4.25;1.65;;;;;;;;;;5140940;27;20046;-67
2021/06/14 05:02:35;;;;;;;6.07;1.52;;;;;;;;;;5159661;27;20026;-67
2021/06/14 05:05:01;;;;;;;5.40;1.33;;;;;;;;;;5159610;27;20025;-67
2021/06/14 05:07:27;;;;;;;4.43;1.40;;;;;;;;;;5159596;27;20034;-67
2021/06/14 05:09:55;;;;;;;6.40;1.52;;;;;;;;;;5154315;27;20532;-67
2021/06/14 05:12:21;;;;;;;4.45;1.60;;;;;;;;;;5154993;27;20038;-67
2021/06/14 05:14:47;;;;;;;7.40;1.30;;;;;;;;;;5154951;27;20026;-67
2021/06/14 05:17:16;;;;;;;4.13;1.52;;;;;;;;;;5156311;27;20023;-67
2021/06/14 05:19:42;;;;;;;4.15;1.60;;;;;;;;;;5155869;27;20503;-68
2021/06/14 05:22:08;;;;;;;3.92;1.52;;;;;;;;;;5135747;27;20371;-66
2021/06/14 05:24:34;;;;;;;3.60;1.30;;;;;;;;;;5154674;27;20027;-66
2021/06/14 05:27:01;;;;;;;4.70;1.42;;;;;;;;;;5155543;27;20054;-68
2021/06/14 05:29:27;;;;;;;6.25;1.80;;;;;;;;;;5155872;27;20022;-68
2021/06/14 05:31:53;;;;;;;4.35;1.58;;;;;;;;;;5155166;27;20110;-67
2021/06/14 05:34:19;;;;;;;3.60;1.65;;;;;;;;;;5155282;27;20097;-67
2021/06/14 05:36:45;;;;;;;6.20;1.70;;;;;;;;;;5155814;27;20469;-67
2021/06/14 05:39:11;;;;;;;4.40;1.60;;;;;;;;;;5155574;27;20033;-68
2021/06/14 05:41:37;;;;;;;4.30;1.42;;;;;;;;;;5155307;27;20038;-67
2021/06/14 05:44:03;;;;;;;4.32;1.70;;;;;;;;;;5155513;27;20080;-65
2021/06/14 05:46:30;;;;;;;3.53;1.70;;;;;;;;;;5155677;27;20022;-67
2021/06/14 05:48:56;;;;;;;5.70;1.60;;;;;;;;;;5155431;27;20411;-67
2021/06/14 05:51:22;;;;;;;4.88;1.70;;;;;;;;;;5155411;27;20027;-68
2021/06/14 05:53:48;;;;;;;4.60;1.63;;;;;;;;;;5155712;27;20022;-66
2021/06/14 05:56:15;;;;;;;5.00;1.52;;;;;;;;;;5155402;27;20021;-67
2021/06/14 05:58:41;;;;;;;4.30;1.70;;;;;;;;;;5155327;27;20061;-65
2021/06/14 06:01:07;;;;;;;4.97;1.60;;;;;;;;;;5142272;27;20030;-65
2021/06/14 06:03:33;;;;;;;3.50;1.60;;;;;;;;;;5133737;27;20132;-67
2021/06/14 06:05:59;;;;;;;4.70;1.52;;;;;;;;;;5132937;27;20022;-67
2021/06/14 06:08:25;;;;;;;4.57;1.50;;;;;;;;;;5134260;27;20022;-66
2021/06/14 06:10:52;;;;;;;5.40;1.60;;;;;;;;;;5133763;27;20023;-67
2021/06/14 06:13:18;;;;;;;4.05;1.70;;;;;;;;;;5134085;27;20027;-66
2021/06/14 06:15:44;;;;;;;5.60;2.03;;;;;;;;;;5134153;27;20041;-68
2021/06/14 06:18:10;;;;;;;3.47;1.45;;;;;;;;;;5134143;27;20027;-67
2021/06/14 06:20:36;;;;;;;5.32;1.55;;;;;;;;;;5133962;27;20015;-68
2021/06/14 06:23:04;;;;;;;4.05;1.50;;;;;;;;;;5134238;27;20042;-68
2021/06/14 06:25:30;;;;;;;4.45;1.45;;;;;;;;;;5134348;27;20106;-67
2021/06/14 06:27:57;;;;;;;3.80;1.40;;;;;;;;;;5134088;27;20445;-68
2021/06/14 06:30:25;;;;;;;4.38;1.60;;;;;;;;;;5134027;27;20178;-68
2021/06/14 06:32:51;;;;;;;4.10;1.40;;;;;;;;;;5134113;27;20038;-68
2021/06/14 06:35:17;;;;;;;4.30;1.50;;;;;;;;;;5134122;27;20030;-67
2021/06/14 06:37:44;;;;;;;5.85;1.80;;;;;;;;;;5133944;27;20031;-68
2021/06/14 06:40:10;;;;;;;4.57;1.70;;;;;;;;;;5134232;27;20026;-69
2021/06/14 06:42:36;;;;;;;4.03;1.40;;;;;;;;;;5133960;27;20075;-67
2021/06/14 06:45:04;;;;;;;6.53;1.65;;;;;;;;;;5133692;27;20131;-67
2021/06/14 06:47:30;;;;;;;6.15;1.38;;;;;;;;;;5133591;27;20054;-68
2021/06/14 06:49:56;;;;;;;3.30;1.55;;;;;;;;;;5115209;27;20080;-68
2021/06/14 06:52:22;;;;;;;3.55;1.52;;;;;;;;;;5133376;27;20110;-68
2021/06/14 06:54:48;;;;;;;4.28;1.50;;;;;;;;;;5133862;27;20070;-68
2021/06/14 06:57:16;;;;;;;6.32;1.40;;;;;;;;;;5133457;27;20046;-68
2021/06/14 06:59:42;;;;;;;4.05;1.58;;;;;;;;;;5133282;27;20019;-67
2021/06/14 07:02:09;;;;;;;3.65;1.30;;;;;;;;;;5133662;27;20023;-68
2021/06/14 07:04:37;;;;;;;4.28;1.48;;;;;;;;;;5133762;27;20416;-68
2021/06/14 07:07:03;;;;;;;6.15;1.58;;;;;;;;;;5133422;27;20076;-68
2021/06/14 07:09:29;;;;;;;5.40;1.25;;;;;;;;;;5133542;27;20023;-68
2021/06/14 07:11:56;;;;;;;4.00;1.33;;;;;;;;;;5133278;27;20030;-68
2021/06/14 07:14:22;;;;;;;6.50;1.63;;;;;;;;;;5114848;27;20072;-70
2021/06/14 07:16:48;;;;;;;3.88;1.73;;;;;;;;;;5133302;27;20481;-68
2021/06/14 07:19:14;;;;;;;3.50;1.25;;;;;;;;;;5135906;27;20031;-65
2021/06/14 07:21:40;;;;;;;11.23;1.83;;;;;;;;;;5148653;27;20022;-65
2021/06/14 07:24:07;;;;;;;4.35;1.20;;;;;;;;;;5143881;27;20366;-65
2021/06/14 07:26:34;;;;;;;9.48;2.03;;;;;;;;;;5132735;27;20436;-64
2021/06/14 07:29:00;;;;;;;7.90;1.77;;;;;;;;;;5135267;27;20583;-65
2021/06/14 07:31:26;;;;;;;4.97;1.38;;;;;;;;;;5137191;27;20047;-65
2021/06/14 07:33:54;;;;;;;6.60;1.55;;;;;;;;;;5131283;27;20355;-65
2021/06/14 07:36:20;;;;;;;5.90;1.58;;;;;;;;;;5132337;27;20420;-65
2021/06/14 07:38:46;;;;;;;4.93;1.60;;;;;;;;;;5132576;27;20458;-65
2021/06/14 07:41:13;;;;;;;5.47;1.30;;;;;;;;;;5138780;27;20023;-65
2021/06/14 07:43:39;;;;;;;3.53;1.17;;;;;;;;;;5110179;28;20050;-66
2021/06/14 07:46:05;;;;;;;6.78;1.65;;;;;;;;;;5111128;28;20031;-64
2021/06/14 07:48:31;;;;;;;4.53;1.67;;;;;;;;;;5111524;28;20072;-64
2021/06/14 07:50:57;;;;;;;4.15;1.35;;;;;;;;;;5111558;28;20012;-66
2021/06/14 07:53:23;;;;;;;3.90;1.40;;;;;;;;;;5112056;28;20028;-67
2021/06/14 07:55:52;;;;;;;5.03;1.40;;;;;;;;;;5111518;28;20078;-63
2021/06/14 07:58:18;;;;;;;4.80;1.50;;;;;;;;;;5108990;28;20493;-66
2021/06/14 08:00:44;;;;;;;7.97;1.88;;;;;;;;;;5108836;28;20023;-65
2021/06/14 08:03:11;;;;;;;6.90;1.38;;;;;;;;;;5111930;28;20110;-64
2021/06/14 08:05:37;;;;;;;4.90;1.60;;;;;;;;;;5111526;28;20020;-65
2021/06/14 08:08:03;;;;;;;5.60;1.50;;;;;;;;;;5110527;28;20119;-64
2021/06/14 08:10:29;;;;;;;4.07;1.33;;;;;;;;;;5111984;28;20110;-65
2021/06/14 08:12:56;;;;;;;4.90;1.33;;;;;;;;;;5112238;28;20201;-64
2021/06/14 08:15:26;;;;;;;4.05;1.48;;;;;;;;;;5112285;28;20020;-63
2021/06/14 08:17:57;;;;;;;4.80;1.65;;;;;;;;;;5098264;28;20028;-64
2021/06/14 08:20:32;;;;;;;4.40;1.40;;;;;;;;;;5091500;28;20025;-66
2021/06/14 08:25:30;;;;;;;3.75;1.50;;;;;;;;;;5091872;28;20119;-65
2021/06/14 08:27:56;;;;;;;4.22;1.20;;;;;;;;;;5091763;28;20070;-65
2021/06/14 08:30:23;;;;;;;3.85;1.15;;;;;;;;;;5091992;28;20614;-64
2021/06/14 08:32:50;;;;;;;6.13;1.38;;;;;;;;;;5091712;28;20071;-66
2021/06/14 08:35:17;;;;;;;3.65;1.35;;;;;;;;;;5091304;28;20528;-66
2021/06/14 08:37:43;;;;;;;6.78;1.40;;;;;;;;;;5090696;28;20032;-66
2021/06/14 08:40:10;;;;;;;5.47;1.23;;;;;;;;;;5091286;28;20103;-65
2021/06/14 08:42:37;;;;;;;5.40;1.38;;;;;;;;;;5111812;28;20047;-64
2021/06/14 08:45:03;;;;;;;5.85;1.50;;;;;;;;;;5135476;27;20481;-65
2021/06/14 08:47:30;;;;;;;3.50;1.48;;;;;;;;;;5136271;27;20075;-66
2021/06/14 08:49:57;;;;;;;4.80;1.40;;;;;;;;;;5136229;27;20023;-68
2021/06/14 08:52:23;;;;;;;3.38;1.35;;;;;;;;;;5135623;27;20034;-65
2021/06/14 08:54:51;;;;;;;2.88;1.20;;;;;;;;;;5136081;27;20106;-65
2021/06/14 08:57:17;;;;;;;4.47;1.35;;;;;;;;;;5136097;27;20027;-65
2021/06/14 08:59:43;;;;;;;5.25;1.80;;;;;;;;;;5135988;27;20027;-64
2021/06/14 09:02:10;;;;;;;13.18;3.63;;;;;;;;;;5136174;27;20482;-66
2021/06/14 09:04:36;;;;;;;6.75;2.10;;;;;;;;;;5136139;27;20015;-66
2021/06/14 09:07:02;;;;;;;4.78;1.63;;;;;;;;;;5136069;27;20094;-68
2021/06/14 09:09:32;;;;;;;5.93;1.75;;;;;;;;;;5136130;27;20426;-66
2021/06/14 09:11:59;;;;;;;3.63;1.38;;;;;;;;;;5136026;27;20034;-65
2021/06/14 09:14:27;;;;;;;6.47;1.50;;;;;;;;;;5136153;27;20030;-66
2021/06/14 09:16:56;;;;;;;6.18;1.50;;;;;;;;;;5119174;27;20015;-66
2021/06/14 09:19:23;;;;;;;5.65;1.40;;;;;;;;;;5135547;27;20019;-66
2021/06/14 09:21:54;;;;;;;4.50;1.63;;;;;;;;;;5117269;27;20023;-66
2021/06/14 09:24:21;;;;;;;6.32;1.35;;;;;;;;;;5135314;27;20378;-66
2021/06/14 09:26:47;;;;;;;2.83;1.10;;;;;;;;;;5135460;27;20030;-66
2021/06/14 09:29:15;;;;;;;3.50;1.17;;;;;;;;;;5135238;27;20015;-66
2021/06/14 09:31:49;;;;;;;7.60;1.42;;;;;;;;;;5139486;27;20035;-63
2021/06/14 09:34:15;;;;;;;15.25;2.80;;;;;;;;;;5156087;27;20019;-66
2021/06/14 09:36:42;;;;;;;6.97;2.00;;;;;;;;;;5156205;27;20026;-67
2021/06/14 09:39:13;;;;;;;17.90;2.15;;;;;;;;;;5156066;27;20074;-66
2021/06/14 09:41:41;;;;;;;9.15;1.70;;;;;;;;;;5137644;27;20377;-66
2021/06/14 09:44:07;;;;;;;3.80;1.45;;;;;;;;;;5155795;27;20022;-65
2021/06/14 09:46:33;;;;;;;4.63;1.75;;;;;;;;;;5137168;27;20027;-66
2021/06/14 09:49:04;;;;;;;8.18;1.83;;;;;;;;;;5155477;27;20025;-65
2021/06/14 09:51:31;;;;;;;4.63;1.50;;;;;;;;;;5156064;27;20075;-64
2021/06/14 09:53:57;;;;;;;4.40;1.33;;;;;;;;;;5156071;27;20023;-65
2021/06/14 09:56:27;;;;;;;9.32;1.90;;;;;;;;;;5154882;27;20019;-68
2021/06/14 09:58:55;;;;;;;3.25;1.45;;;;;;;;;;5156030;27;20542;-65
2021/06/14 10:01:30;;;;;;;4.88;1.50;;;;;;;;;;5155809;27;20023;-67
2021/06/14 10:03:57;;;;;;;4.75;1.38;;;;;;;;;;5155888;27;20086;-66
2021/06/14 10:06:31;;;;;;;4.25;1.45;;;;;;;;;;5136774;27;20462;-68
2021/06/14 10:08:57;;;;;;;4.00;1.58;;;;;;;;;;5137014;27;20015;-66
2021/06/14 10:11:23;;;;;;;5.28;1.77;;;;;;;;;;5155236;27;20106;-64
2021/06/14 10:13:49;;;;;;;3.88;1.25;;;;;;;;;;5155141;27;20102;-65
2021/06/14 10:16:17;;;;;;;3.15;1.23;;;;;;;;;;5135941;27;20031;-65
2021/06/14 10:18:52;;;;;;;4.50;1.58;;;;;;;;;;5115772;27;20019;-64
2021/06/14 10:21:24;;;;;;;3.40;1.50;;;;;;;;;;5134317;27;20050;-65
2021/06/14 10:23:52;;;;;;;5.85;1.65;;;;;;;;;;5134493;27;20405;-65
2021/06/14 10:26:20;;;;;;;3.95;1.40;;;;;;;;;;5134589;27;20023;-65
2021/06/14 10:28:47;;;;;;;3.13;1.33;;;;;;;;;;5134623;27;20470;-64
2021/06/14 10:31:13;;;;;;;4.68;1.40;;;;;;;;;;5134511;27;20065;-64
2021/06/14 10:33:39;;;;;;;4.60;1.40;;;;;;;;;;5134408;27;20020;-66
2021/06/14 10:36:06;;;;;;;2.50;1.13;;;;;;;;;;5134576;27;20492;-64
2021/06/14 10:38:33;;;;;;;4.60;1.30;;;;;;;;;;5134432;27;20054;-63
2021/06/14 10:40:59;;;;;;;5.18;1.55;;;;;;;;;;5134252;27;20106;-63
2021/06/14 10:43:27;;;;;;;2.58;1.02;;;;;;;;;;5134145;27;20047;-63
2021/06/14 10:45:54;;;;;;;3.42;1.50;;;;;;;;;;5133729;27;20015;-66
2021/06/14 10:48:28;;;;;;;3.20;1.02;;;;;;;;;;5133416;27;20562;-64
2021/06/14 10:50:54;;;;;;;4.13;1.30;;;;;;;;;;5134100;27;20107;-63
2021/06/14 10:53:24;;;;;;;5.28;1.38;;;;;;;;;;5133868;27;20049;-65
2021/06/14 10:55:51;;;;;;;5.95;1.30;;;;;;;;;;5115338;27;20427;-65
2021/06/14 10:58:17;;;;;;;4.32;1.38;;;;;;;;;;5133785;27;20032;-66
2021/06/14 11:00:43;;;;;;;6.35;1.45;;;;;;;;;;5133648;27;20043;-68
2021/06/14 11:03:11;;;;;;;7.95;2.10;;;;;;;;;;5133686;27;20023;-67
2021/06/14 11:05:39;;;;;;;4.35;1.80;;;;;;;;;;5133663;27;20050;-66
2021/06/14 11:08:11;;;;;;;11.20;2.00;;;;;;;;;;5114233;27;20433;-68
2021/06/14 11:10:38;;;;;;;4.95;1.75;;;;;;;;;;5133766;27;20031;-65
2021/06/14 11:13:08;;;;;;;8.95;1.60;;;;;;;;;;5133426;27;20118;-71
2021/06/14 11:15:35;;;;;;;4.53;1.60;;;;;;;;;;5133196;27;20015;-65
2021/06/14 11:18:05;;;;;;;4.47;1.92;;;;;;;;;;5114896;27;20469;-66
2021/06/14 11:20:35;;;;;;;4.07;1.42;;;;;;;;;;5133489;27;20525;-65
2021/06/14 11:23:02;;;;;;;3.08;1.25;;;;;;;;;;5133195;27;20042;-65
2021/06/14 11:25:33;;;;;;;5.53;1.65;;;;;;;;;;5133521;27;20116;-64
2021/06/14 11:28:01;;;;;;;5.25;1.45;;;;;;;;;;5132696;27;20019;-65
2021/06/14 11:30:29;;;;;;;8.15;1.77;;;;;;;;;;5132748;27;20012;-66
2021/06/14 11:32:56;;;;;;;6.13;1.77;;;;;;;;;;5114383;27;20522;-66
2021/06/14 11:35:23;;;;;;;4.28;1.48;;;;;;;;;;5133352;27;20105;-65
2021/06/14 11:37:50;;;;;;;3.67;1.60;;;;;;;;;;5133308;27;20470;-65
2021/06/14 11:40:17;;;;;;;3.90;1.45;;;;;;;;;;5133271;27;20023;-66
2021/06/14 11:42:48;;;;;;;5.68;1.50;;;;;;;;;;5132857;27;20081;-68
2021/06/14 11:45:27;;;;;;;4.18;1.70;;;;;;;;;;5132834;27;20523;-65
2021/06/14 11:47:53;;;;;;;4.00;1.42;;;;;;;;;;5132917;27;20432;-64
2021/06/14 11:50:23;;;;;;;5.45;1.60;;;;;;;;;;5114154;28;20023;-64
2021/06/14 11:52:58;;;;;;;8.07;1.70;;;;;;;;;;5132532;27;20039;-64
2021/06/14 11:55:27;;;;;;;3.45;1.35;;;;;;;;;;5132531;27;20047;-66
2021/06/14 11:57:57;;;;;;;5.00;1.40;;;;;;;;;;5132638;28;20030;-65
2021/06/14 12:00:26;;;;;;;3.40;1.30;;;;;;;;;;5132990;28;20098;-64
2021/06/14 12:02:52;;;;;;;3.42;1.23;;;;;;;;;;5132733;28;20020;-64
2021/06/14 12:05:29;;;;;;;4.93;1.30;;;;;;;;;;5132525;28;20035;-64
2021/06/14 12:07:55;;;;;;;4.78;1.23;;;;;;;;;;5132530;28;20027;-66
2021/06/14 12:10:22;;;;;;;5.88;1.25;;;;;;;;;;5132356;28;20098;-65
2021/06/14 12:13:01;;;;;;;3.67;1.40;;;;;;;;;;5132084;28;20253;-64
2021/06/14 12:15:27;;;;;;;5.53;1.60;;;;;;;;;;5132208;28;20026;-65
2021/06/14 12:17:53;;;;;;;2.65;1.10;;;;;;;;;;5131923;27;20019;-65
2021/06/14 12:20:24;;;;;;;3.75;1.30;;;;;;;;;;5136010;27;20015;-65
2021/06/14 12:22:58;;;;;;;3.53;1.10;;;;;;;;;;5148633;27;20101;-65
2021/06/14 12:25:24;;;;;;;5.35;1.20;;;;;;;;;;5137686;27;20023;-65
2021/06/14 12:27:58;;;;;;;2.60;0.98;;;;;;;;;;5136792;27;20023;-65
2021/06/14 12:30:26;;;;;;;3.60;1.27;;;;;;;;;;5137433;27;20020;-66
2021/06/14 12:32:53;;;;;;;2.78;1.20;;;;;;;;;;5137489;27;20035;-65
2021/06/14 12:35:19;;;;;;;5.22;1.45;;;;;;;;;;5137147;27;20015;-65
2021/06/14 12:37:45;;;;;;;4.07;1.15;;;;;;;;;;5136861;27;20035;-65
2021/06/14 12:40:13;;;;;;;3.67;1.40;;;;;;;;;;5138756;27;20015;-62
2021/06/14 12:42:39;;;;;;;3.50;1.27;;;;;;;;;;5151077;27;20038;-62
2021/06/14 12:45:13;;;;;;;4.97;1.48;;;;;;;;;;5156664;27;20631;-62
2021/06/14 12:47:49;;;;;;;3.47;1.40;;;;;;;;;;5157346;27;20577;-63
2021/06/14 12:50:19;;;;;;;3.20;1.05;;;;;;;;;;5138545;27;20497;-62
2021/06/14 12:52:45;;;;;;;3.72;1.17;;;;;;;;;;5156683;27;20048;-64
2021/06/14 12:55:21;;;;;;;7.93;1.48;;;;;;;;;;5156897;27;20403;-65
2021/06/14 12:57:47;;;;;;;5.13;1.30;;;;;;;;;;5156673;27;20378;-65
2021/06/14 13:00:25;;;;;;;3.50;1.05;;;;;;;;;;5156062;27;20054;-66
2021/06/14 13:02:55;;;;;;;4.18;1.45;;;;;;;;;;5156136;27;20024;-66
2021/06/14 13:05:25;;;;;;;4.43;1.20;;;;;;;;;;5155878;27;20023;-67
2021/06/14 13:07:52;;;;;;;2.85;1.30;;;;;;;;;;5155920;27;20066;-65
2021/06/14 13:10:19;;;;;;;3.78;1.15;;;;;;;;;;5155739;27;20022;-65
2021/06/14 13:12:45;;;;;;;5.22;1.20;;;;;;;;;;5156244;27;20065;-64
2021/06/14 13:15:14;;;;;;;2.20;1.00;;;;;;;;;;5156349;27;20019;-65
2021/06/14 13:17:44;;;;;;;4.05;1.20;;;;;;;;;;5143463;27;20019;-65
2021/06/14 13:20:10;;;;;;;4.22;1.17;;;;;;;;;;5135024;27;20072;-64
2021/06/14 13:22:36;;;;;;;3.13;1.20;;;;;;;;;;5116797;27;20022;-67
2021/06/14 13:25:04;;;;;;;2.63;1.23;;;;;;;;;;5135101;27;20018;-65
2021/06/14 13:27:32;;;;;;;11.68;1.40;;;;;;;;;;5135116;27;20607;-67
2021/06/14 13:29:58;;;;;;;3.08;1.20;;;;;;;;;;5134297;27;20011;-67
2021/06/14 13:32:32;;;;;;;2.28;1.05;;;;;;;;;;5134717;27;20558;-67
2021/06/14 13:35:03;;;;;;;3.53;1.40;;;;;;;;;;5135089;27;20019;-67
2021/06/14 13:37:57;;;;;;;3.75;1.40;;;;;;;;;;5134803;27;20111;-69
2021/06/14 13:40:26;;;;;;;7.97;1.83;;;;;;;;;;5131810;27;20571;-68
2021/06/14 13:42:56;;;;;;;3.40;1.10;;;;;;;;;;5134532;27;20054;-68
2021/06/14 13:45:36;;;;;;;4.20;1.38;;;;;;;;;;5134621;27;20023;-66
2021/06/14 13:48:03;;;;;;;4.28;1.30;;;;;;;;;;5135210;27;20011;-68
2021/06/14 13:50:37;;;;;;;3.40;1.08;;;;;;;;;;5135042;27;20023;-68
2021/06/14 13:53:15;;;;;;;5.45;1.20;;;;;;;;;;5135028;27;20156;-68
2021/06/14 13:55:48;;;;;;;3.40;1.10;;;;;;;;;;5135187;27;20049;-67
2021/06/14 13:58:15;;;;;;;3.78;1.58;;;;;;;;;;5135235;27;20442;-67
2021/06/14 14:00:42;;;;;;;4.95;1.27;;;;;;;;;;5116242;27;20015;-62
2021/06/14 14:03:08;;;;;;;4.13;1.52;;;;;;;;;;5134481;27;20468;-64
2021/06/14 14:05:35;;;;;;;5.10;1.60;;;;;;;;;;5134741;27;20033;-64
2021/06/14 14:08:02;;;;;;;5.88;1.45;;;;;;;;;;5134950;27;20018;-64
2021/06/14 14:10:29;;;;;;;4.97;1.35;;;;;;;;;;5134809;27;20022;-64
2021/06/14 14:12:55;;;;;;;4.75;1.40;;;;;;;;;;5134566;27;20066;-64
2021/06/14 14:15:22;;;;;;;5.05;1.40;;;;;;;;;;5134527;27;20565;-65
2021/06/14 14:17:48;;;;;;;3.67;1.30;;;;;;;;;;5115733;27;20023;-64
2021/06/14 14:20:16;;;;;;;4.55;1.60;;;;;;;;;;5134219;27;20415;-64
2021/06/14 14:22:42;;;;;;;4.20;1.60;;;;;;;;;;5134604;27;20034;-64
2021/06/14 14:25:09;;;;;;;4.10;1.35;;;;;;;;;;5134505;27;20134;-65
2021/06/14 14:27:35;;;;;;;3.20;1.40;;;;;;;;;;5134137;27;20481;-64
2021/06/14 14:30:01;;;;;;;3.70;1.55;;;;;;;;;;5134077;27;20410;-67
2021/06/14 14:32:27;;;;;;;7.70;1.52;;;;;;;;;;5115413;27;20055;-64
2021/06/14 14:34:58;;;;;;;4.97;1.50;;;;;;;;;;5134207;27;20058;-66
2021/06/14 14:37:24;;;;;;;6.38;1.80;;;;;;;;;;5133940;27;20239;-67
2021/06/14 14:40:00;;;;;;;5.78;1.50;;;;;;;;;;5133864;27;20019;-64
2021/06/14 14:42:27;;;;;;;4.00;1.67;;;;;;;;;;5133143;27;20047;-64
2021/06/14 14:44:53;;;;;;;3.83;1.63;;;;;;;;;;5114903;27;20035;-64
2021/06/14 14:47:19;;;;;;;7.53;1.52;;;;;;;;;;5133450;27;20102;-67
2021/06/14 14:49:46;;;;;;;4.45;1.38;;;;;;;;;;5134050;27;20065;-69
2021/06/14 14:52:14;;;;;;;4.15;1.35;;;;;;;;;;5134094;27;20041;-65